sensor_id;sensor_type;location;lat;lon;timestamp;P1;durP1;ratioP1;P2;durP2;ratioP2
49109;SDS011;34921;52.320;16.142;2022-10-16T00:01:21;17.50;;;11.03;;
49109;SDS011;34921;52.320;16.142;2022-10-16T00:03:51;13.50;;;9.98;;
49109;SDS011;34921;52.320;16.142;2022-10-16T00:06:19;15.15;;;10.58;;
49109;SDS011;34921;52.320;16.142;2022-10-16T00:08:48;14.70;;;10.70;;
49109;SDS011;34921;52.320;16.142;2022-10-16T00:11:20;14.55;;;10.30;;
49109;SDS011;34921;52.320;16.142;2022-10-16T00:13:57;14.05;;;10.68;;
49109;SDS011;34921;52.320;16.142;2022-10-16T00:16:25;17.70;;;10.25;;
49109;SDS011;34921;52.320;16.142;2022-10-16T00:18:53;13.38;;;10.20;;
49109;SDS011;34921;52.320;16.142;2022-10-16T00:21:22;14.43;;;10.45;;
49109;SDS011;34921;52.320;16.142;2022-10-16T00:23:52;14.27;;;10.50;;
49109;SDS011;34921;52.320;16.142;2022-10-16T00:26:21;16.97;;;11.55;;
49109;SDS011;34921;52.320;16.142;2022-10-16T00:28:48;14.85;;;10.65;;
49109;SDS011;34921;52.320;16.142;2022-10-16T00:31:17;14.70;;;10.40;;
49109;SDS011;34921;52.320;16.142;2022-10-16T00:33:46;12.90;;;10.00;;
49109;SDS011;34921;52.320;16.142;2022-10-16T00:36:14;12.55;;;10.18;;
49109;SDS011;34921;52.320;16.142;2022-10-16T00:38:43;12.65;;;10.45;;
49109;SDS011;34921;52.320;16.142;2022-10-16T00:41:13;13.30;;;10.23;;
49109;SDS011;34921;52.320;16.142;2022-10-16T00:43:46;14.50;;;10.20;;
49109;SDS011;34921;52.320;16.142;2022-10-16T00:46:39;15.07;;;10.03;;
49109;SDS011;34921;52.320;16.142;2022-10-16T00:49:12;12.53;;;10.48;;
49109;SDS011;34921;52.320;16.142;2022-10-16T00:51:45;15.08;;;10.20;;
49109;SDS011;34921;52.320;16.142;2022-10-16T00:54:29;16.48;;;10.45;;
49109;SDS011;34921;52.320;16.142;2022-10-16T00:56:58;14.63;;;10.08;;
49109;SDS011;34921;52.320;16.142;2022-10-16T00:59:33;12.73;;;9.83;;
49109;SDS011;34921;52.320;16.142;2022-10-16T01:02:03;14.05;;;9.45;;
49109;SDS011;34921;52.320;16.142;2022-10-16T01:04:35;13.15;;;10.23;;
49109;SDS011;34921;52.320;16.142;2022-10-16T01:07:20;12.75;;;9.35;;
49109;SDS011;34921;52.320;16.142;2022-10-16T01:12:53;12.45;;;9.55;;
49109;SDS011;34921;52.320;16.142;2022-10-16T01:18:54;12.82;;;9.43;;
49109;SDS011;34921;52.320;16.142;2022-10-16T01:21:39;13.08;;;9.25;;
49109;SDS011;34921;52.320;16.142;2022-10-16T01:27:08;12.58;;;9.88;;
49109;SDS011;34921;52.320;16.142;2022-10-16T01:32:33;12.25;;;8.93;;
49109;SDS011;34921;52.320;16.142;2022-10-16T01:35:46;15.88;;;9.55;;
49109;SDS011;34921;52.320;16.142;2022-10-16T01:38:19;12.83;;;10.17;;
49109;SDS011;34921;52.320;16.142;2022-10-16T01:40:52;13.05;;;9.75;;
49109;SDS011;34921;52.320;16.142;2022-10-16T01:43:26;11.35;;;9.30;;
49109;SDS011;34921;52.320;16.142;2022-10-16T01:45:57;11.48;;;9.20;;
49109;SDS011;34921;52.320;16.142;2022-10-16T01:48:25;13.88;;;9.15;;
49109;SDS011;34921;52.320;16.142;2022-10-16T01:50:59;13.38;;;9.45;;
49109;SDS011;34921;52.320;16.142;2022-10-16T01:53:33;13.10;;;9.68;;
49109;SDS011;34921;52.320;16.142;2022-10-16T01:56:00;13.15;;;8.65;;
49109;SDS011;34921;52.320;16.142;2022-10-16T01:58:30;12.50;;;8.57;;
49109;SDS011;34921;52.320;16.142;2022-10-16T02:01:02;10.35;;;8.75;;
49109;SDS011;34921;52.320;16.142;2022-10-16T02:03:30;11.78;;;8.65;;
49109;SDS011;34921;52.320;16.142;2022-10-16T02:05:58;11.63;;;9.03;;
49109;SDS011;34921;52.320;16.142;2022-10-16T02:08:26;10.87;;;8.40;;
49109;SDS011;34921;52.320;16.142;2022-10-16T02:10:56;12.50;;;9.13;;
49109;SDS011;34921;52.320;16.142;2022-10-16T02:13:29;10.15;;;8.53;;
49109;SDS011;34921;52.320;16.142;2022-10-16T02:15:57;11.70;;;8.88;;
49109;SDS011;34921;52.320;16.142;2022-10-16T02:18:24;13.38;;;8.90;;
49109;SDS011;34921;52.320;16.142;2022-10-16T02:20:59;10.63;;;8.23;;
49109;SDS011;34921;52.320;16.142;2022-10-16T02:26:35;11.73;;;8.40;;
49109;SDS011;34921;52.320;16.142;2022-10-16T02:29:07;10.75;;;8.40;;
49109;SDS011;34921;52.320;16.142;2022-10-16T02:31:38;13.25;;;8.18;;
49109;SDS011;34921;52.320;16.142;2022-10-16T02:34:08;10.20;;;8.40;;
49109;SDS011;34921;52.320;16.142;2022-10-16T02:36:39;11.25;;;8.70;;
49109;SDS011;34921;52.320;16.142;2022-10-16T02:39:07;11.22;;;8.33;;
49109;SDS011;34921;52.320;16.142;2022-10-16T02:41:35;11.97;;;9.05;;
49109;SDS011;34921;52.320;16.142;2022-10-16T02:44:02;13.40;;;7.92;;
49109;SDS011;34921;52.320;16.142;2022-10-16T02:46:29;11.63;;;8.13;;
49109;SDS011;34921;52.320;16.142;2022-10-16T02:48:57;9.80;;;7.80;;
49109;SDS011;34921;52.320;16.142;2022-10-16T02:51:24;13.78;;;7.95;;
49109;SDS011;34921;52.320;16.142;2022-10-16T02:53:51;10.55;;;8.03;;
49109;SDS011;34921;52.320;16.142;2022-10-16T02:56:18;10.15;;;8.03;;
49109;SDS011;34921;52.320;16.142;2022-10-16T02:58:45;12.20;;;8.48;;
49109;SDS011;34921;52.320;16.142;2022-10-16T03:01:12;8.88;;;7.35;;
49109;SDS011;34921;52.320;16.142;2022-10-16T03:03:41;9.53;;;8.25;;
49109;SDS011;34921;52.320;16.142;2022-10-16T03:06:08;11.43;;;8.33;;
49109;SDS011;34921;52.320;16.142;2022-10-16T03:08:35;11.70;;;7.95;;
49109;SDS011;34921;52.320;16.142;2022-10-16T03:11:02;9.35;;;7.78;;
49109;SDS011;34921;52.320;16.142;2022-10-16T03:13:29;12.07;;;8.25;;
49109;SDS011;34921;52.320;16.142;2022-10-16T03:15:56;12.30;;;8.03;;
49109;SDS011;34921;52.320;16.142;2022-10-16T03:18:23;11.53;;;7.65;;
49109;SDS011;34921;52.320;16.142;2022-10-16T03:20:50;10.25;;;7.92;;
49109;SDS011;34921;52.320;16.142;2022-10-16T03:23:17;12.65;;;8.63;;
49109;SDS011;34921;52.320;16.142;2022-10-16T03:25:44;11.30;;;8.13;;
49109;SDS011;34921;52.320;16.142;2022-10-16T03:28:11;10.85;;;8.10;;
49109;SDS011;34921;52.320;16.142;2022-10-16T03:30:38;11.55;;;7.35;;
49109;SDS011;34921;52.320;16.142;2022-10-16T03:33:06;11.68;;;8.10;;
49109;SDS011;34921;52.320;16.142;2022-10-16T03:35:33;9.93;;;7.60;;
49109;SDS011;34921;52.320;16.142;2022-10-16T03:38:01;9.83;;;7.85;;
49109;SDS011;34921;52.320;16.142;2022-10-16T03:40:28;10.68;;;8.28;;
49109;SDS011;34921;52.320;16.142;2022-10-16T03:42:58;11.22;;;8.10;;
49109;SDS011;34921;52.320;16.142;2022-10-16T03:45:25;11.00;;;7.80;;
49109;SDS011;34921;52.320;16.142;2022-10-16T03:47:54;10.85;;;8.38;;
49109;SDS011;34921;52.320;16.142;2022-10-16T03:50:21;11.40;;;7.70;;
49109;SDS011;34921;52.320;16.142;2022-10-16T03:52:48;10.13;;;7.50;;
49109;SDS011;34921;52.320;16.142;2022-10-16T03:55:15;10.08;;;7.67;;
49109;SDS011;34921;52.320;16.142;2022-10-16T03:57:42;9.58;;;8.13;;
49109;SDS011;34921;52.320;16.142;2022-10-16T04:00:09;13.80;;;7.95;;
49109;SDS011;34921;52.320;16.142;2022-10-16T04:02:37;8.73;;;7.25;;
49109;SDS011;34921;52.320;16.142;2022-10-16T04:05:05;9.93;;;8.00;;
49109;SDS011;34921;52.320;16.142;2022-10-16T04:07:32;10.75;;;8.00;;
49109;SDS011;34921;52.320;16.142;2022-10-16T04:09:59;10.10;;;7.67;;
49109;SDS011;34921;52.320;16.142;2022-10-16T04:12:26;9.70;;;7.35;;
49109;SDS011;34921;52.320;16.142;2022-10-16T04:14:54;11.08;;;7.67;;
49109;SDS011;34921;52.320;16.142;2022-10-16T04:17:21;10.85;;;8.18;;
49109;SDS011;34921;52.320;16.142;2022-10-16T04:19:48;13.65;;;8.43;;
49109;SDS011;34921;52.320;16.142;2022-10-16T04:22:15;9.78;;;7.85;;
49109;SDS011;34921;52.320;16.142;2022-10-16T04:24:42;12.53;;;8.63;;
49109;SDS011;34921;52.320;16.142;2022-10-16T04:27:09;9.83;;;7.60;;
49109;SDS011;34921;52.320;16.142;2022-10-16T04:29:36;10.63;;;7.80;;
49109;SDS011;34921;52.320;16.142;2022-10-16T04:32:03;11.70;;;8.68;;
49109;SDS011;34921;52.320;16.142;2022-10-16T04:34:30;10.40;;;8.53;;
49109;SDS011;34921;52.320;16.142;2022-10-16T04:36:57;11.55;;;8.45;;
49109;SDS011;34921;52.320;16.142;2022-10-16T04:39:24;10.58;;;7.90;;
49109;SDS011;34921;52.320;16.142;2022-10-16T04:41:51;11.97;;;8.70;;
49109;SDS011;34921;52.320;16.142;2022-10-16T04:44:18;11.83;;;8.13;;
49109;SDS011;34921;52.320;16.142;2022-10-16T04:46:46;10.13;;;8.07;;
49109;SDS011;34921;52.320;16.142;2022-10-16T04:49:13;11.78;;;8.10;;
49109;SDS011;34921;52.320;16.142;2022-10-16T04:51:40;10.63;;;8.43;;
49109;SDS011;34921;52.320;16.142;2022-10-16T04:54:08;12.37;;;8.60;;
49109;SDS011;34921;52.320;16.142;2022-10-16T04:56:35;12.30;;;8.88;;
49109;SDS011;34921;52.320;16.142;2022-10-16T04:59:09;13.18;;;8.80;;
49109;SDS011;34921;52.320;16.142;2022-10-16T05:01:36;13.03;;;8.68;;
49109;SDS011;34921;52.320;16.142;2022-10-16T05:04:03;12.75;;;8.73;;
49109;SDS011;34921;52.320;16.142;2022-10-16T05:06:30;12.20;;;8.60;;
49109;SDS011;34921;52.320;16.142;2022-10-16T05:08:58;11.12;;;8.65;;
49109;SDS011;34921;52.320;16.142;2022-10-16T05:11:25;10.25;;;8.23;;
49109;SDS011;34921;52.320;16.142;2022-10-16T05:13:52;12.55;;;8.63;;
49109;SDS011;34921;52.320;16.142;2022-10-16T05:16:19;12.25;;;8.43;;
49109;SDS011;34921;52.320;16.142;2022-10-16T05:18:46;11.80;;;8.18;;
49109;SDS011;34921;52.320;16.142;2022-10-16T05:21:13;11.75;;;8.68;;
49109;SDS011;34921;52.320;16.142;2022-10-16T05:23:40;13.38;;;8.58;;
49109;SDS011;34921;52.320;16.142;2022-10-16T05:26:07;10.85;;;8.28;;
49109;SDS011;34921;52.320;16.142;2022-10-16T05:28:34;12.53;;;9.03;;
49109;SDS011;34921;52.320;16.142;2022-10-16T05:31:08;10.27;;;7.67;;
49109;SDS011;34921;52.320;16.142;2022-10-16T05:33:36;10.97;;;8.33;;
49109;SDS011;34921;52.320;16.142;2022-10-16T05:36:04;12.13;;;8.53;;
49109;SDS011;34921;52.320;16.142;2022-10-16T05:38:34;11.10;;;8.88;;
49109;SDS011;34921;52.320;16.142;2022-10-16T05:41:02;10.35;;;8.35;;
49109;SDS011;34921;52.320;16.142;2022-10-16T05:43:31;11.68;;;8.05;;
49109;SDS011;34921;52.320;16.142;2022-10-16T05:45:59;11.43;;;8.63;;
49109;SDS011;34921;52.320;16.142;2022-10-16T05:48:31;14.55;;;9.10;;
49109;SDS011;34921;52.320;16.142;2022-10-16T05:50:59;10.48;;;8.25;;
49109;SDS011;34921;52.320;16.142;2022-10-16T05:53:28;10.53;;;8.33;;
49109;SDS011;34921;52.320;16.142;2022-10-16T05:55:56;11.22;;;8.38;;
49109;SDS011;34921;52.320;16.142;2022-10-16T05:58:24;11.25;;;8.55;;
49109;SDS011;34921;52.320;16.142;2022-10-16T06:00:59;11.30;;;8.43;;
49109;SDS011;34921;52.320;16.142;2022-10-16T06:03:28;12.33;;;8.23;;
49109;SDS011;34921;52.320;16.142;2022-10-16T06:05:55;11.75;;;8.10;;
49109;SDS011;34921;52.320;16.142;2022-10-16T06:08:22;11.30;;;8.37;;
49109;SDS011;34921;52.320;16.142;2022-10-16T06:10:59;10.68;;;8.65;;
49109;SDS011;34921;52.320;16.142;2022-10-16T06:13:28;11.30;;;8.15;;
49109;SDS011;34921;52.320;16.142;2022-10-16T06:15:56;11.78;;;7.97;;
49109;SDS011;34921;52.320;16.142;2022-10-16T06:18:25;11.60;;;8.07;;
49109;SDS011;34921;52.320;16.142;2022-10-16T06:20:54;10.38;;;7.33;;
49109;SDS011;34921;52.320;16.142;2022-10-16T06:23:22;10.95;;;7.80;;
49109;SDS011;34921;52.320;16.142;2022-10-16T06:25:50;10.63;;;8.10;;
49109;SDS011;34921;52.320;16.142;2022-10-16T06:28:17;11.35;;;8.50;;
49109;SDS011;34921;52.320;16.142;2022-10-16T06:30:44;10.40;;;7.97;;
49109;SDS011;34921;52.320;16.142;2022-10-16T06:33:12;10.53;;;8.43;;
49109;SDS011;34921;52.320;16.142;2022-10-16T06:35:40;10.88;;;7.90;;
49109;SDS011;34921;52.320;16.142;2022-10-16T06:38:07;10.05;;;7.62;;
49109;SDS011;34921;52.320;16.142;2022-10-16T06:40:34;11.08;;;8.18;;
49109;SDS011;34921;52.320;16.142;2022-10-16T06:43:02;12.07;;;7.90;;
49109;SDS011;34921;52.320;16.142;2022-10-16T06:45:29;10.90;;;7.42;;
49109;SDS011;34921;52.320;16.142;2022-10-16T06:47:56;12.73;;;7.45;;
49109;SDS011;34921;52.320;16.142;2022-10-16T06:50:24;9.45;;;7.35;;
49109;SDS011;34921;52.320;16.142;2022-10-16T06:52:51;11.00;;;7.67;;
49109;SDS011;34921;52.320;16.142;2022-10-16T06:55:18;10.78;;;7.95;;
49109;SDS011;34921;52.320;16.142;2022-10-16T06:57:46;10.32;;;7.65;;
49109;SDS011;34921;52.320;16.142;2022-10-16T07:00:15;10.23;;;7.37;;
49109;SDS011;34921;52.320;16.142;2022-10-16T07:02:42;9.93;;;7.10;;
49109;SDS011;34921;52.320;16.142;2022-10-16T07:05:09;9.33;;;7.45;;
49109;SDS011;34921;52.320;16.142;2022-10-16T07:07:37;9.90;;;7.30;;
49109;SDS011;34921;52.320;16.142;2022-10-16T07:10:04;8.98;;;6.35;;
49109;SDS011;34921;52.320;16.142;2022-10-16T07:12:32;7.33;;;6.27;;
49109;SDS011;34921;52.320;16.142;2022-10-16T07:14:59;9.03;;;6.78;;
49109;SDS011;34921;52.320;16.142;2022-10-16T07:17:26;10.03;;;7.75;;
49109;SDS011;34921;52.320;16.142;2022-10-16T07:19:54;8.47;;;7.07;;
49109;SDS011;34921;52.320;16.142;2022-10-16T07:22:22;7.03;;;6.08;;
49109;SDS011;34921;52.320;16.142;2022-10-16T07:24:49;10.55;;;6.65;;
49109;SDS011;34921;52.320;16.142;2022-10-16T07:27:18;9.07;;;6.60;;
49109;SDS011;34921;52.320;16.142;2022-10-16T07:29:45;10.88;;;6.67;;
49109;SDS011;34921;52.320;16.142;2022-10-16T07:32:13;8.50;;;6.37;;
49109;SDS011;34921;52.320;16.142;2022-10-16T07:34:40;9.93;;;6.70;;
49109;SDS011;34921;52.320;16.142;2022-10-16T07:37:08;7.20;;;6.30;;
49109;SDS011;34921;52.320;16.142;2022-10-16T07:39:36;8.85;;;7.05;;
49109;SDS011;34921;52.320;16.142;2022-10-16T07:42:04;11.90;;;6.75;;
49109;SDS011;34921;52.320;16.142;2022-10-16T07:44:31;8.33;;;6.55;;
49109;SDS011;34921;52.320;16.142;2022-10-16T07:46:58;8.83;;;6.62;;
49109;SDS011;34921;52.320;16.142;2022-10-16T07:49:26;9.63;;;6.78;;
49109;SDS011;34921;52.320;16.142;2022-10-16T07:51:53;8.60;;;7.22;;
49109;SDS011;34921;52.320;16.142;2022-10-16T07:54:20;8.33;;;6.35;;
49109;SDS011;34921;52.320;16.142;2022-10-16T07:56:48;10.00;;;6.30;;
49109;SDS011;34921;52.320;16.142;2022-10-16T07:59:15;6.75;;;5.67;;
49109;SDS011;34921;52.320;16.142;2022-10-16T08:01:43;8.55;;;5.72;;
49109;SDS011;34921;52.320;16.142;2022-10-16T08:04:11;9.35;;;6.10;;
49109;SDS011;34921;52.320;16.142;2022-10-16T08:06:39;6.87;;;6.17;;
49109;SDS011;34921;52.320;16.142;2022-10-16T08:09:07;6.65;;;5.40;;
49109;SDS011;34921;52.320;16.142;2022-10-16T08:11:34;7.75;;;5.90;;
49109;SDS011;34921;52.320;16.142;2022-10-16T08:14:02;7.70;;;5.50;;
49109;SDS011;34921;52.320;16.142;2022-10-16T08:16:29;6.63;;;5.43;;
49109;SDS011;34921;52.320;16.142;2022-10-16T08:18:56;6.03;;;4.72;;
49109;SDS011;34921;52.320;16.142;2022-10-16T08:21:23;8.65;;;6.05;;
49109;SDS011;34921;52.320;16.142;2022-10-16T08:23:52;7.05;;;5.92;;
49109;SDS011;34921;52.320;16.142;2022-10-16T08:26:20;10.47;;;6.33;;
49109;SDS011;34921;52.320;16.142;2022-10-16T08:28:51;9.85;;;5.97;;
49109;SDS011;34921;52.320;16.142;2022-10-16T08:31:18;7.08;;;5.37;;
49109;SDS011;34921;52.320;16.142;2022-10-16T08:33:46;8.23;;;5.08;;
49109;SDS011;34921;52.320;16.142;2022-10-16T08:36:14;9.03;;;5.50;;
49109;SDS011;34921;52.320;16.142;2022-10-16T08:38:42;9.00;;;5.95;;
49109;SDS011;34921;52.320;16.142;2022-10-16T08:46:29;8.08;;;5.58;;
49109;SDS011;34921;52.320;16.142;2022-10-16T08:49:24;7.42;;;5.28;;
49109;SDS011;34921;52.320;16.142;2022-10-16T08:51:52;9.33;;;5.85;;
49109;SDS011;34921;52.320;16.142;2022-10-16T08:54:22;6.80;;;5.30;;
49109;SDS011;34921;52.320;16.142;2022-10-16T08:57:37;7.00;;;5.25;;
49109;SDS011;34921;52.320;16.142;2022-10-16T09:00:00;6.60;;;5.10;;
49109;SDS011;34921;52.320;16.142;2022-10-16T09:02:34;8.55;;;6.58;;
49109;SDS011;34921;52.320;16.142;2022-10-16T09:10:35;8.80;;;5.70;;
49109;SDS011;34921;52.320;16.142;2022-10-16T09:23:43;6.03;;;5.03;;
49109;SDS011;34921;52.320;16.142;2022-10-16T09:26:11;7.35;;;5.50;;
49109;SDS011;34921;52.320;16.142;2022-10-16T09:28:40;6.55;;;4.70;;
49109;SDS011;34921;52.320;16.142;2022-10-16T09:31:12;6.10;;;4.83;;
49109;SDS011;34921;52.320;16.142;2022-10-16T09:33:43;6.97;;;4.87;;
49109;SDS011;34921;52.320;16.142;2022-10-16T09:36:12;6.90;;;5.17;;
49109;SDS011;34921;52.320;16.142;2022-10-16T09:38:40;5.00;;;4.40;;
49109;SDS011;34921;52.320;16.142;2022-10-16T09:41:15;6.60;;;4.95;;
49109;SDS011;34921;52.320;16.142;2022-10-16T09:48:55;5.57;;;4.20;;
49109;SDS011;34921;52.320;16.142;2022-10-16T09:51:26;5.10;;;4.30;;
49109;SDS011;34921;52.320;16.142;2022-10-16T09:53:55;5.05;;;4.12;;
49109;SDS011;34921;52.320;16.142;2022-10-16T09:56:34;5.65;;;4.12;;
49109;SDS011;34921;52.320;16.142;2022-10-16T09:59:08;4.72;;;3.90;;
49109;SDS011;34921;52.320;16.142;2022-10-16T10:01:38;5.47;;;4.03;;
49109;SDS011;34921;52.320;16.142;2022-10-16T10:04:07;5.63;;;4.37;;
49109;SDS011;34921;52.320;16.142;2022-10-16T10:06:35;4.78;;;3.83;;
49109;SDS011;34921;52.320;16.142;2022-10-16T10:16:52;5.58;;;4.00;;
49109;SDS011;34921;52.320;16.142;2022-10-16T10:19:28;5.20;;;3.83;;
49109;SDS011;34921;52.320;16.142;2022-10-16T10:21:55;7.03;;;4.17;;
49109;SDS011;34921;52.320;16.142;2022-10-16T10:24:22;6.55;;;4.17;;
49109;SDS011;34921;52.320;16.142;2022-10-16T10:29:35;6.30;;;4.35;;
49109;SDS011;34921;52.320;16.142;2022-10-16T10:32:17;5.58;;;4.30;;
49109;SDS011;34921;52.320;16.142;2022-10-16T10:35:07;6.37;;;4.20;;
49109;SDS011;34921;52.320;16.142;2022-10-16T10:46:48;7.15;;;3.80;;
49109;SDS011;34921;52.320;16.142;2022-10-16T10:52:59;5.90;;;4.25;;
49109;SDS011;34921;52.320;16.142;2022-10-16T10:55:24;6.40;;;4.30;;
49109;SDS011;34921;52.320;16.142;2022-10-16T11:06:10;4.78;;;3.70;;
49109;SDS011;34921;52.320;16.142;2022-10-16T11:08:48;5.35;;;3.40;;
49109;SDS011;34921;52.320;16.142;2022-10-16T11:11:20;6.47;;;3.80;;
49109;SDS011;34921;52.320;16.142;2022-10-16T11:16:48;6.25;;;3.20;;
49109;SDS011;34921;52.320;16.142;2022-10-16T11:19:35;6.50;;;3.50;;
49109;SDS011;34921;52.320;16.142;2022-10-16T11:24:53;4.05;;;2.75;;
49109;SDS011;34921;52.320;16.142;2022-10-16T11:27:30;5.50;;;3.08;;
49109;SDS011;34921;52.320;16.142;2022-10-16T11:30:04;4.33;;;2.77;;
49109;SDS011;34921;52.320;16.142;2022-10-16T11:32:47;5.22;;;3.00;;
49109;SDS011;34921;52.320;16.142;2022-10-16T11:35:21;4.22;;;2.95;;
49109;SDS011;34921;52.320;16.142;2022-10-16T11:37:52;4.30;;;2.70;;
49109;SDS011;34921;52.320;16.142;2022-10-16T11:40:54;5.25;;;2.55;;
49109;SDS011;34921;52.320;16.142;2022-10-16T11:43:37;4.37;;;2.20;;
49109;SDS011;34921;52.320;16.142;2022-10-16T11:46:10;4.00;;;2.70;;
49109;SDS011;34921;52.320;16.142;2022-10-16T11:48:48;4.87;;;2.55;;
49109;SDS011;34921;52.320;16.142;2022-10-16T11:51:25;3.85;;;2.60;;
49109;SDS011;34921;52.320;16.142;2022-10-16T11:56:35;5.08;;;2.40;;
49109;SDS011;34921;52.320;16.142;2022-10-16T11:59:25;4.05;;;2.40;;
49109;SDS011;34921;52.320;16.142;2022-10-16T12:05:01;3.70;;;2.42;;
49109;SDS011;34921;52.320;16.142;2022-10-16T12:07:35;5.08;;;2.62;;
49109;SDS011;34921;52.320;16.142;2022-10-16T12:10:19;4.37;;;3.10;;
49109;SDS011;34921;52.320;16.142;2022-10-16T12:12:47;3.33;;;2.55;;
49109;SDS011;34921;52.320;16.142;2022-10-16T12:15:20;5.28;;;2.52;;
49109;SDS011;34921;52.320;16.142;2022-10-16T12:17:50;4.22;;;2.20;;
49109;SDS011;34921;52.320;16.142;2022-10-16T12:22:50;4.70;;;2.60;;
49109;SDS011;34921;52.320;16.142;2022-10-16T12:25:23;5.25;;;2.30;;
49109;SDS011;34921;52.320;16.142;2022-10-16T12:28:05;5.15;;;2.20;;
49109;SDS011;34921;52.320;16.142;2022-10-16T12:30:51;2.83;;;1.92;;
49109;SDS011;34921;52.320;16.142;2022-10-16T12:33:25;3.30;;;1.65;;
49109;SDS011;34921;52.320;16.142;2022-10-16T12:35:53;4.45;;;1.90;;
49109;SDS011;34921;52.320;16.142;2022-10-16T12:40:56;3.10;;;1.80;;
49109;SDS011;34921;52.320;16.142;2022-10-16T12:46:21;4.22;;;2.30;;
49109;SDS011;34921;52.320;16.142;2022-10-16T12:48:46;6.87;;;2.20;;
49109;SDS011;34921;52.320;16.142;2022-10-16T12:51:25;5.25;;;2.12;;
49109;SDS011;34921;52.320;16.142;2022-10-16T13:02:38;4.40;;;2.12;;
49109;SDS011;34921;52.320;16.142;2022-10-16T13:23:13;2.67;;;1.80;;
49109;SDS011;34921;52.320;16.142;2022-10-16T13:25:58;3.27;;;1.87;;
49109;SDS011;34921;52.320;16.142;2022-10-16T13:28:34;3.42;;;1.85;;
49109;SDS011;34921;52.320;16.142;2022-10-16T13:31:03;2.70;;;1.90;;
49109;SDS011;34921;52.320;16.142;2022-10-16T13:36:02;3.22;;;2.10;;
49109;SDS011;34921;52.320;16.142;2022-10-16T13:38:34;3.90;;;2.30;;
49109;SDS011;34921;52.320;16.142;2022-10-16T13:41:05;3.35;;;2.40;;
49109;SDS011;34921;52.320;16.142;2022-10-16T13:46:13;4.50;;;2.87;;
49109;SDS011;34921;52.320;16.142;2022-10-16T13:49:13;5.25;;;2.60;;
49109;SDS011;34921;52.320;16.142;2022-10-16T13:51:58;3.30;;;2.35;;
49109;SDS011;34921;52.320;16.142;2022-10-16T13:54:29;5.35;;;2.55;;
49109;SDS011;34921;52.320;16.142;2022-10-16T13:57:04;4.53;;;2.60;;
49109;SDS011;34921;52.320;16.142;2022-10-16T13:59:35;3.83;;;2.43;;
49109;SDS011;34921;52.320;16.142;2022-10-16T14:02:15;3.02;;;1.92;;
49109;SDS011;34921;52.320;16.142;2022-10-16T14:05:03;5.53;;;2.52;;
49109;SDS011;34921;52.320;16.142;2022-10-16T14:07:34;3.47;;;2.02;;
49109;SDS011;34921;52.320;16.142;2022-10-16T14:10:20;3.22;;;2.10;;
49109;SDS011;34921;52.320;16.142;2022-10-16T14:13:03;3.70;;;2.15;;
49109;SDS011;34921;52.320;16.142;2022-10-16T14:15:34;3.27;;;2.10;;
49109;SDS011;34921;52.320;16.142;2022-10-16T14:18:03;3.23;;;1.90;;
49109;SDS011;34921;52.320;16.142;2022-10-16T14:20:39;4.37;;;1.80;;
49109;SDS011;34921;52.320;16.142;2022-10-16T14:26:16;3.77;;;1.77;;
49109;SDS011;34921;52.320;16.142;2022-10-16T14:28:46;4.45;;;1.80;;
49109;SDS011;34921;52.320;16.142;2022-10-16T14:31:36;3.12;;;1.40;;
49109;SDS011;34921;52.320;16.142;2022-10-16T14:34:05;2.72;;;1.45;;
49109;SDS011;34921;52.320;16.142;2022-10-16T14:39:52;3.35;;;1.90;;
49109;SDS011;34921;52.320;16.142;2022-10-16T14:42:22;4.80;;;1.70;;
49109;SDS011;34921;52.320;16.142;2022-10-16T14:44:53;4.83;;;1.67;;
49109;SDS011;34921;52.320;16.142;2022-10-16T14:47:22;6.15;;;1.50;;
49109;SDS011;34921;52.320;16.142;2022-10-16T14:49:53;5.72;;;1.62;;
49109;SDS011;34921;52.320;16.142;2022-10-16T14:52:22;2.98;;;1.62;;
49109;SDS011;34921;52.320;16.142;2022-10-16T14:54:50;4.22;;;2.20;;
49109;SDS011;34921;52.320;16.142;2022-10-16T14:57:26;2.90;;;1.90;;
49109;SDS011;34921;52.320;16.142;2022-10-16T14:59:55;7.87;;;2.50;;
49109;SDS011;34921;52.320;16.142;2022-10-16T15:04:57;6.28;;;4.22;;
49109;SDS011;34921;52.320;16.142;2022-10-16T15:07:27;4.35;;;3.35;;
49109;SDS011;34921;52.320;16.142;2022-10-16T15:09:54;5.08;;;2.45;;
49109;SDS011;34921;52.320;16.142;2022-10-16T15:12:24;10.65;;;7.25;;
49109;SDS011;34921;52.320;16.142;2022-10-16T15:14:52;10.75;;;7.90;;
49109;SDS011;34921;52.320;16.142;2022-10-16T15:17:19;9.73;;;5.10;;
49109;SDS011;34921;52.320;16.142;2022-10-16T15:19:47;17.10;;;11.20;;
49109;SDS011;34921;52.320;16.142;2022-10-16T15:22:14;10.25;;;6.00;;
49109;SDS011;34921;52.320;16.142;2022-10-16T15:24:42;19.40;;;12.45;;
49109;SDS011;34921;52.320;16.142;2022-10-16T15:27:10;12.85;;;7.33;;
49109;SDS011;34921;52.320;16.142;2022-10-16T15:29:38;7.58;;;5.15;;
49109;SDS011;34921;52.320;16.142;2022-10-16T15:34:37;5.53;;;3.52;;
49109;SDS011;34921;52.320;16.142;2022-10-16T15:37:05;4.72;;;2.80;;
49109;SDS011;34921;52.320;16.142;2022-10-16T15:39:33;8.15;;;4.42;;
49109;SDS011;34921;52.320;16.142;2022-10-16T15:42:00;16.15;;;9.33;;
49109;SDS011;34921;52.320;16.142;2022-10-16T15:44:28;18.40;;;10.93;;
49109;SDS011;34921;52.320;16.142;2022-10-16T15:46:57;24.45;;;13.43;;
49109;SDS011;34921;52.320;16.142;2022-10-16T15:49:25;37.43;;;19.50;;
49109;SDS011;34921;52.320;16.142;2022-10-16T15:51:52;22.70;;;13.32;;
49109;SDS011;34921;52.320;16.142;2022-10-16T15:54:21;17.17;;;11.00;;
49109;SDS011;34921;52.320;16.142;2022-10-16T15:56:49;43.78;;;25.90;;
49109;SDS011;34921;52.320;16.142;2022-10-16T15:59:17;31.68;;;22.37;;
49109;SDS011;34921;52.320;16.142;2022-10-16T16:01:44;17.77;;;9.48;;
49109;SDS011;34921;52.320;16.142;2022-10-16T16:04:11;15.35;;;10.43;;
49109;SDS011;34921;52.320;16.142;2022-10-16T16:06:39;17.02;;;13.30;;
49109;SDS011;34921;52.320;16.142;2022-10-16T16:09:11;15.83;;;12.47;;
49109;SDS011;34921;52.320;16.142;2022-10-16T16:11:40;31.42;;;24.00;;
49109;SDS011;34921;52.320;16.142;2022-10-16T16:14:10;47.45;;;34.27;;
49109;SDS011;34921;52.320;16.142;2022-10-16T16:16:40;63.33;;;42.93;;
49109;SDS011;34921;52.320;16.142;2022-10-16T16:19:08;51.42;;;36.17;;
49109;SDS011;34921;52.320;16.142;2022-10-16T16:21:36;93.00;;;62.33;;
49109;SDS011;34921;52.320;16.142;2022-10-16T16:24:03;96.78;;;63.00;;
49109;SDS011;34921;52.320;16.142;2022-10-16T16:26:35;73.60;;;49.13;;
49109;SDS011;34921;52.320;16.142;2022-10-16T16:29:06;77.30;;;49.83;;
49109;SDS011;34921;52.320;16.142;2022-10-16T16:31:34;71.65;;;48.83;;
49109;SDS011;34921;52.320;16.142;2022-10-16T16:34:02;71.02;;;46.40;;
49109;SDS011;34921;52.320;16.142;2022-10-16T16:36:30;66.50;;;45.95;;
49109;SDS011;34921;52.320;16.142;2022-10-16T16:38:58;63.17;;;44.38;;
49109;SDS011;34921;52.320;16.142;2022-10-16T16:41:26;60.43;;;42.73;;
49109;SDS011;34921;52.320;16.142;2022-10-16T16:43:55;59.13;;;40.73;;
49109;SDS011;34921;52.320;16.142;2022-10-16T16:46:28;43.95;;;30.68;;
49109;SDS011;34921;52.320;16.142;2022-10-16T16:48:57;43.55;;;31.65;;
49109;SDS011;34921;52.320;16.142;2022-10-16T16:51:25;53.55;;;37.60;;
49109;SDS011;34921;52.320;16.142;2022-10-16T16:53:53;120.10;;;73.83;;
49109;SDS011;34921;52.320;16.142;2022-10-16T16:56:21;193.68;;;118.08;;
49109;SDS011;34921;52.320;16.142;2022-10-16T16:58:50;135.85;;;79.12;;
49109;SDS011;34921;52.320;16.142;2022-10-16T17:01:20;212.97;;;120.33;;